createdAt,value
2018-06-20T00:01:37.625Z,99.90
2018-06-20T00:04:06.426Z,99.90
2018-06-20T00:06:39.056Z,99.90
2018-06-20T00:09:10.144Z,99.90
2018-06-20T00:11:38.833Z,99.90
2018-06-20T00:14:07.467Z,99.90
2018-06-20T00:16:36.247Z,99.90
2018-06-20T00:19:04.897Z,99.90
2018-06-20T00:21:33.562Z,99.90
2018-06-20T00:24:02.168Z,99.90
2018-06-20T00:26:30.792Z,99.90
2018-06-20T00:28:59.433Z,99.90
2018-06-20T00:31:28.042Z,99.90
2018-06-20T00:33:56.644Z,99.90
2018-06-20T00:36:25.265Z,99.90
2018-06-20T00:38:53.878Z,99.90
2018-06-20T00:41:22.444Z,99.90
2018-06-20T00:43:51.053Z,99.90
2018-06-20T00:46:19.650Z,99.90
2018-06-20T00:48:48.266Z,99.90
2018-06-20T00:51:16.864Z,99.90
2018-06-20T00:53:45.450Z,99.90
2018-06-20T00:56:22.745Z,99.90
2018-06-20T00:58:51.798Z,99.90
2018-06-20T01:01:21.146Z,99.90
2018-06-20T01:03:50.089Z,99.90
2018-06-20T01:06:18.728Z,99.90
2018-06-20T01:08:52.777Z,99.90
2018-06-20T01:11:21.523Z,99.90
2018-06-20T01:13:50.161Z,99.90
2018-06-20T01:16:18.773Z,99.90
2018-06-20T01:18:47.408Z,99.90
2018-06-20T01:21:16.273Z,99.90
2018-06-20T01:23:45.206Z,99.90
2018-06-20T01:26:13.792Z,99.90
2018-06-20T01:28:42.396Z,99.90
2018-06-20T01:31:10.973Z,99.90
2018-06-20T01:33:39.589Z,99.90
2018-06-20T01:36:08.212Z,99.90
2018-06-20T01:38:36.796Z,99.90
2018-06-20T01:43:34.133Z,99.90
2018-06-20T01:46:02.709Z,99.90
2018-06-20T01:48:31.278Z,99.90
2018-06-20T01:50:59.872Z,99.90
2018-06-20T01:53:28.448Z,99.90
2018-06-20T01:55:57.037Z,99.90
2018-06-20T01:58:25.617Z,99.90
2018-06-20T02:00:54.289Z,99.90
2018-06-20T02:03:22.988Z,99.90
2018-06-20T02:05:51.607Z,99.90
2018-06-20T02:08:20.505Z,99.90
2018-06-20T02:10:49.117Z,99.90
2018-06-20T02:13:17.871Z,99.90
2018-06-20T02:15:46.484Z,99.90
2018-06-20T02:18:15.163Z,99.90
2018-06-20T02:20:43.797Z,99.90
2018-06-20T02:23:12.408Z,99.90
2018-06-20T02:25:41.038Z,99.90
2018-06-20T02:28:09.639Z,99.90
2018-06-20T02:30:38.285Z,99.90
2018-06-20T02:33:06.914Z,99.90
2018-06-20T02:35:35.566Z,99.90
2018-06-20T02:38:05.181Z,99.90
2018-06-20T02:40:33.780Z,99.90
2018-06-20T02:43:02.384Z,99.90
2018-06-20T02:45:31.004Z,99.90
2018-06-20T02:47:59.918Z,99.90
2018-06-20T02:52:56.815Z,99.90
2018-06-20T02:55:25.448Z,99.90
2018-06-20T02:57:54.028Z,99.90
2018-06-20T03:00:22.653Z,99.90
2018-06-20T03:02:51.216Z,99.90
2018-06-20T03:05:19.892Z,99.90
2018-06-20T03:10:16.771Z,99.90
2018-06-20T03:15:13.643Z,99.90
2018-06-20T03:17:42.233Z,99.90
2018-06-20T03:20:10.812Z,99.90
2018-06-20T03:22:39.403Z,99.90
2018-06-20T03:25:08.060Z,99.90
2018-06-20T03:27:36.745Z,99.90
2018-06-20T03:30:05.461Z,99.90
2018-06-20T03:32:34.144Z,99.90
2018-06-20T03:35:02.779Z,99.90
2018-06-20T03:37:31.368Z,99.90
2018-06-20T03:39:59.943Z,99.90
2018-06-20T03:42:28.517Z,99.90
2018-06-20T03:44:57.082Z,99.90
2018-06-20T03:47:25.681Z,99.90
2018-06-20T03:49:57.394Z,99.90
2018-06-20T03:52:26.013Z,99.90
2018-06-20T03:54:54.601Z,99.90
2018-06-20T03:57:23.201Z,99.90
2018-06-20T03:59:51.814Z,99.90
2018-06-20T04:04:48.711Z,99.90
2018-06-20T04:07:17.341Z,99.90
2018-06-20T04:09:45.903Z,99.90
2018-06-20T04:12:14.576Z,99.90
2018-06-20T04:14:43.265Z,99.90
2018-06-20T04:17:11.873Z,99.90
2018-06-20T04:19:40.433Z,99.90
2018-06-20T04:22:09.015Z,99.90
2018-06-20T04:24:37.611Z,99.90
2018-06-20T04:27:06.449Z,99.90
2018-06-20T04:29:35.053Z,99.90
2018-06-20T04:32:03.619Z,99.90
2018-06-20T04:34:32.189Z,99.90
2018-06-20T04:37:00.853Z,99.90
2018-06-20T04:39:29.444Z,99.90
2018-06-20T04:41:58.001Z,99.90
2018-06-20T04:44:26.614Z,99.90
2018-06-20T04:46:55.213Z,99.90
2018-06-20T04:49:23.814Z,99.90
2018-06-20T04:51:52.390Z,99.90
2018-06-20T04:54:21.001Z,99.90
2018-06-20T04:56:49.602Z,99.90
2018-06-20T04:59:18.199Z,99.90
2018-06-20T05:01:46.762Z,99.90
2018-06-20T05:04:15.389Z,99.90
2018-06-20T05:06:43.941Z,99.90
2018-06-20T05:09:19.453Z,99.90
2018-06-20T05:11:49.423Z,99.90
2018-06-20T05:14:18.673Z,99.90
2018-06-20T05:16:47.306Z,99.90
2018-06-20T05:19:15.982Z,99.90
2018-06-20T05:21:44.526Z,99.90
2018-06-20T05:24:13.134Z,99.90
2018-06-20T05:26:41.673Z,99.90
2018-06-20T05:29:10.256Z,99.90
2018-06-20T05:31:38.843Z,99.90
2018-06-20T05:34:07.417Z,99.90
2018-06-20T05:36:36.022Z,99.90
2018-06-20T05:39:07.505Z,99.90
2018-06-20T05:41:36.489Z,99.90
2018-06-20T05:44:05.428Z,99.90
2018-06-20T05:46:34.053Z,99.90
2018-06-20T05:49:02.605Z,99.90
2018-06-20T05:51:31.171Z,99.90
2018-06-20T05:53:59.756Z,99.90
2018-06-20T05:56:28.313Z,99.90
2018-06-20T05:58:56.912Z,99.90
2018-06-20T06:01:25.520Z,99.90
2018-06-20T06:03:54.068Z,99.90
2018-06-20T06:06:22.675Z,99.90
2018-06-20T06:08:51.320Z,99.90
2018-06-20T06:11:19.969Z,99.90
2018-06-20T06:13:48.568Z,99.90
2018-06-20T06:16:17.162Z,99.90
2018-06-20T06:18:45.802Z,99.90
2018-06-20T06:21:14.438Z,99.90
2018-06-20T06:23:43.009Z,99.90
2018-06-20T06:26:11.602Z,99.90
2018-06-20T06:28:40.157Z,99.90
2018-06-20T06:31:08.788Z,99.90
2018-06-20T06:54:08.354Z,99.90
2018-06-20T06:56:36.950Z,99.90
2018-06-20T06:59:05.537Z,99.90
2018-06-20T07:01:34.146Z,99.90
2018-06-20T07:04:02.697Z,99.90
2018-06-20T07:06:31.315Z,99.90
2018-06-20T07:08:59.880Z,99.90
2018-06-20T07:11:28.504Z,99.90
2018-06-20T07:13:57.098Z,99.90
2018-06-20T07:16:25.699Z,99.90
2018-06-20T07:18:54.748Z,99.90
2018-06-20T07:21:23.346Z,99.90
2018-06-20T07:26:20.136Z,99.90
2018-06-20T07:28:48.786Z,99.90
2018-06-20T07:31:17.395Z,99.90
2018-06-20T07:33:45.960Z,99.90
2018-06-20T07:36:14.584Z,99.90
2018-06-20T07:38:43.236Z,99.90
2018-06-20T07:41:11.804Z,99.90
2018-06-20T07:43:40.411Z,99.90
2018-06-20T07:46:09.034Z,99.90
2018-06-20T07:48:37.634Z,99.90
2018-06-20T07:51:06.249Z,99.90
2018-06-20T07:53:34.920Z,99.90
2018-06-20T07:56:03.535Z,99.90
2018-06-20T07:58:37.403Z,99.90
2018-06-20T08:01:11.263Z,99.90
2018-06-20T08:03:45.300Z,99.90
2018-06-20T08:06:19.342Z,99.90
2018-06-20T08:08:53.095Z,99.90
2018-06-20T08:11:27.085Z,99.90
2018-06-20T08:14:01.188Z,99.90
2018-06-20T08:16:35.162Z,99.90
2018-06-20T08:19:09.002Z,99.90
2018-06-20T08:21:37.597Z,99.90
2018-06-20T08:24:06.215Z,99.90
2018-06-20T08:26:34.831Z,99.90
2018-06-20T08:29:03.540Z,99.90
2018-06-20T08:31:32.212Z,99.90
2018-06-20T08:34:00.843Z,99.90
2018-06-20T08:36:29.468Z,99.90
2018-06-20T08:38:58.094Z,99.90
2018-06-20T08:41:27.524Z,99.90
2018-06-20T08:43:56.174Z,99.90
2018-06-20T08:46:24.769Z,99.90
2018-06-20T08:48:54.209Z,99.90
2018-06-20T08:51:22.819Z,99.90
2018-06-20T08:53:51.435Z,99.90
2018-06-20T08:56:19.993Z,99.90
2018-06-20T08:58:48.698Z,99.90
2018-06-20T09:01:17.674Z,99.90
2018-06-20T09:03:46.432Z,99.90
2018-06-20T09:06:20.284Z,99.90
2018-06-20T09:08:54.091Z,99.90
2018-06-20T09:11:28.100Z,99.90
2018-06-20T09:14:01.946Z,99.90
2018-06-20T09:16:35.861Z,99.90
2018-06-20T09:19:09.803Z,99.90
2018-06-20T09:21:38.414Z,99.90
2018-06-20T09:24:06.996Z,99.90
2018-06-20T09:26:35.625Z,99.90
2018-06-20T09:29:04.221Z,99.90
2018-06-20T09:31:33.101Z,99.90
2018-06-20T09:34:01.665Z,99.90
2018-06-20T09:36:30.290Z,99.90
2018-06-20T09:38:59.393Z,99.90
2018-06-20T09:41:28.831Z,99.90
2018-06-20T09:43:57.464Z,99.90
2018-06-20T09:46:26.037Z,99.90
2018-06-20T09:48:54.581Z,99.90
2018-06-20T09:51:23.197Z,99.90
2018-06-20T09:53:51.768Z,99.90
2018-06-20T09:56:20.442Z,99.90
2018-06-20T09:58:49.064Z,99.90
2018-06-20T10:01:23.118Z,99.90
2018-06-20T10:04:58.844Z,99.90
2018-06-20T10:07:32.817Z,99.90
2018-06-20T10:10:06.757Z,99.90
2018-06-20T10:12:40.798Z,99.90
2018-06-20T10:15:09.776Z,99.90
2018-06-20T10:17:38.389Z,99.90
2018-06-20T10:20:11.183Z,99.90
2018-06-20T10:22:39.799Z,99.90
2018-06-20T10:25:08.381Z,99.90
2018-06-20T10:27:36.973Z,99.90
2018-06-20T10:30:05.612Z,99.90
2018-06-20T10:32:34.230Z,99.90
2018-06-20T10:35:03.076Z,99.90
2018-06-20T10:37:31.672Z,99.90
2018-06-20T10:40:00.244Z,99.90
2018-06-20T10:42:28.838Z,99.90
2018-06-20T10:45:01.601Z,99.90
2018-06-20T10:47:36.574Z,99.90
2018-06-20T10:50:06.264Z,99.90
2018-06-20T10:52:34.864Z,99.90
2018-06-20T10:55:03.486Z,99.90
2018-06-20T10:57:37.470Z,99.90
2018-06-20T11:00:11.320Z,99.90
2018-06-20T11:02:45.248Z,99.90
2018-06-20T11:05:19.155Z,99.90
2018-06-20T11:07:53.062Z,99.90
2018-06-20T11:10:26.919Z,99.90
2018-06-20T11:13:00.774Z,99.90
2018-06-20T11:15:29.545Z,99.90
2018-06-20T11:17:58.135Z,99.90
2018-06-20T11:20:32.028Z,99.90
2018-06-20T11:23:00.996Z,99.90
2018-06-20T11:25:29.841Z,99.90
2018-06-20T11:27:58.485Z,99.90
2018-06-20T11:30:27.081Z,99.90
2018-06-20T11:32:55.654Z,99.90
2018-06-20T11:35:24.249Z,99.90
2018-06-20T11:37:52.832Z,99.90
2018-06-20T11:40:21.443Z,99.90
2018-06-20T11:42:50.026Z,99.90
2018-06-20T11:45:18.624Z,99.90
2018-06-20T11:47:47.519Z,99.90
2018-06-20T11:50:16.100Z,99.90
2018-06-20T11:52:50.100Z,99.90
2018-06-20T11:55:24.017Z,99.90
2018-06-20T11:57:56.776Z,99.90
2018-06-20T12:00:30.829Z,99.90
2018-06-20T12:03:04.568Z,99.90
2018-06-20T12:05:38.442Z,99.90
2018-06-20T12:10:46.244Z,99.90
2018-06-20T12:13:20.145Z,99.90
2018-06-20T12:15:54.152Z,99.90
2018-06-20T12:18:28.364Z,99.90
2018-06-20T12:21:02.347Z,99.90
2018-06-20T12:23:36.120Z,99.90
2018-06-20T12:26:10.129Z,99.90
2018-06-20T12:31:17.929Z,99.90
2018-06-20T12:33:51.749Z,99.90
2018-06-20T12:36:26.512Z,99.90
2018-06-20T12:39:00.452Z,99.90
2018-06-20T12:41:35.242Z,99.90
2018-06-20T12:44:10.105Z,99.90
2018-06-20T12:47:41.648Z,99.90
2018-06-20T12:50:27.035Z,99.90
2018-06-20T12:52:55.964Z,99.90
2018-06-20T12:55:25.597Z,99.90
2018-06-20T12:57:54.749Z,99.90
2018-06-20T13:00:23.331Z,99.90
2018-06-20T13:02:51.890Z,99.90
2018-06-20T13:05:20.527Z,99.90
2018-06-20T13:07:49.048Z,99.90
2018-06-20T13:10:17.627Z,99.90
2018-06-20T13:12:46.185Z,99.90
2018-06-20T13:15:14.768Z,99.90
2018-06-20T13:17:43.374Z,99.90
2018-06-20T13:20:12.031Z,99.90
2018-06-20T13:22:40.690Z,99.90
2018-06-20T13:25:09.332Z,99.90
2018-06-20T13:27:43.350Z,99.90
2018-06-20T13:30:13.098Z,99.90
2018-06-20T13:32:46.954Z,99.90
2018-06-20T13:35:20.937Z,99.90
2018-06-20T13:38:52.552Z,99.90
2018-06-20T13:41:28.250Z,99.90
2018-06-20T13:44:02.260Z,99.90
2018-06-20T13:46:36.309Z,99.90
2018-06-20T13:49:04.872Z,99.90
2018-06-20T13:51:33.505Z,99.90
2018-06-20T13:54:02.114Z,99.90
2018-06-20T13:56:30.765Z,99.90
2018-06-20T13:58:59.419Z,99.90
2018-06-20T14:01:28.125Z,99.90
2018-06-20T14:03:56.777Z,99.90
2018-06-20T14:06:25.401Z,99.90
2018-06-20T14:08:53.969Z,99.90
2018-06-20T14:11:22.708Z,99.90
2018-06-20T14:13:51.278Z,99.90
2018-06-20T14:16:19.908Z,99.90
2018-06-20T14:18:48.505Z,99.90
2018-06-20T14:21:22.385Z,99.90
2018-06-20T14:23:50.998Z,99.90
2018-06-20T14:26:19.896Z,99.90
2018-06-20T14:28:48.467Z,99.90
2018-06-20T14:31:22.456Z,99.90
2018-06-20T14:33:56.436Z,99.90
2018-06-20T14:36:30.465Z,99.90
2018-06-20T14:39:04.287Z,99.90
2018-06-20T14:41:38.208Z,99.90
2018-06-20T14:44:08.809Z,99.90
2018-06-20T14:46:37.412Z,99.90
2018-06-20T14:49:05.993Z,99.90
2018-06-20T14:51:34.687Z,99.90
2018-06-20T14:54:03.392Z,99.90
2018-06-20T14:56:32.011Z,99.90
2018-06-20T14:59:00.620Z,99.90
2018-06-20T15:01:29.257Z,99.90
2018-06-20T15:03:57.889Z,99.90
2018-06-20T15:06:26.599Z,99.90
2018-06-20T15:08:55.230Z,99.90
2018-06-20T15:11:23.864Z,99.90
2018-06-20T15:13:52.546Z,99.90
2018-06-20T15:16:26.290Z,99.90
2018-06-20T15:18:55.105Z,99.90
2018-06-20T15:21:23.685Z,99.90
2018-06-20T15:23:52.377Z,99.90
2018-06-20T15:26:26.122Z,99.90
2018-06-20T15:29:00.148Z,99.90
2018-06-20T15:31:33.940Z,99.90
2018-06-20T15:34:08.262Z,99.90
2018-06-20T15:36:42.311Z,99.90
2018-06-20T15:39:10.910Z,99.90
2018-06-20T15:41:39.495Z,99.90
2018-06-20T15:44:08.147Z,99.90
2018-06-20T15:46:36.848Z,99.90
2018-06-20T15:49:06.089Z,99.90
2018-06-20T15:51:35.979Z,99.90
2018-06-20T15:54:04.650Z,99.90
2018-06-20T15:56:33.249Z,99.90
2018-06-20T15:59:01.943Z,99.90
2018-06-20T16:01:30.665Z,99.90
2018-06-20T16:03:59.292Z,99.90
2018-06-20T16:06:27.858Z,99.90
2018-06-20T16:09:01.727Z,99.90
2018-06-20T16:11:30.302Z,99.90
2018-06-20T16:13:59.435Z,99.90
2018-06-20T16:19:01.548Z,99.90
2018-06-20T16:21:35.592Z,99.60
2018-06-20T16:24:09.527Z,97.30
2018-06-20T16:26:43.943Z,96.20
2018-06-20T16:29:17.868Z,96.40
2018-06-20T16:31:46.548Z,96.80
2018-06-20T16:34:15.081Z,94.90
2018-06-20T16:36:43.724Z,94.50
2018-06-20T16:39:12.342Z,93.20
2018-06-20T16:41:40.919Z,93.20
2018-06-20T16:44:09.537Z,92.40
2018-06-20T16:46:38.169Z,92.70
2018-06-20T16:49:06.788Z,92.90
2018-06-20T16:51:35.647Z,90.90
2018-06-20T16:54:04.528Z,91.90
2018-06-20T16:56:33.166Z,92.20
2018-06-20T16:59:01.897Z,91.40
2018-06-20T17:01:35.788Z,91.10
2018-06-20T17:04:04.425Z,90.50
2018-06-20T17:06:33.036Z,91.00
2018-06-20T17:09:01.688Z,91.70
2018-06-20T17:11:30.372Z,91.20
2018-06-20T17:14:04.296Z,90.60
2018-06-20T17:16:38.347Z,90.10
2018-06-20T17:19:12.235Z,88.40
2018-06-20T17:21:46.281Z,89.70
2018-06-20T17:24:20.431Z,89.30
2018-06-20T17:26:49.112Z,90.00
2018-06-20T17:29:17.803Z,86.20
2018-06-20T17:31:46.488Z,87.90
2018-06-20T17:34:15.137Z,89.60
2018-06-20T17:36:43.782Z,90.20
2018-06-20T17:39:12.709Z,88.30
2018-06-20T17:41:41.359Z,88.10
2018-06-20T17:44:10.006Z,89.40
2018-06-20T17:46:38.652Z,90.80
2018-06-20T17:49:07.251Z,91.90
2018-06-20T17:51:35.861Z,92.80
2018-06-20T17:54:04.784Z,93.00
2018-06-20T17:56:34.399Z,93.70
2018-06-20T17:59:03.038Z,93.40
2018-06-20T18:01:31.722Z,94.20
2018-06-20T18:04:00.422Z,95.20
2018-06-20T18:06:34.440Z,96.10
2018-06-20T18:09:08.552Z,97.00
2018-06-20T18:11:42.417Z,98.10
2018-06-20T18:14:16.320Z,98.10
2018-06-20T18:16:50.293Z,98.30
2018-06-20T18:19:18.887Z,98.70
2018-06-20T18:21:47.553Z,98.70
2018-06-20T18:24:16.120Z,99.30
2018-06-20T18:26:44.733Z,99.70
2018-06-20T18:31:41.609Z,99.90
2018-06-20T18:34:10.181Z,99.90
2018-06-20T18:36:38.890Z,99.90
2018-06-20T18:39:08.744Z,99.90
2018-06-20T18:41:37.389Z,99.90
2018-06-20T18:44:06.037Z,99.90
2018-06-20T18:46:34.733Z,99.90
2018-06-20T18:49:03.383Z,99.90
2018-06-20T18:51:32.088Z,99.90
2018-06-20T18:54:00.722Z,99.90
2018-06-20T18:56:29.347Z,99.90
2018-06-20T18:59:03.169Z,99.90
2018-06-20T19:01:37.128Z,99.90
2018-06-20T19:04:11.185Z,99.90
2018-06-20T19:06:45.279Z,99.90
2018-06-20T19:09:15.997Z,99.90
2018-06-20T19:11:45.114Z,99.90
2018-06-20T19:14:13.773Z,99.90
2018-06-20T19:16:42.730Z,99.90
2018-06-20T19:19:11.340Z,99.90
2018-06-20T19:21:39.931Z,99.90
2018-06-20T19:24:08.596Z,99.90
2018-06-20T19:26:37.313Z,99.90
2018-06-20T19:29:05.942Z,99.90
2018-06-20T19:34:02.824Z,99.90
2018-06-20T19:36:31.437Z,99.90
2018-06-20T19:39:00.133Z,99.90
2018-06-20T19:41:28.729Z,99.90
2018-06-20T19:44:02.659Z,99.90
2018-06-20T19:46:31.282Z,99.90
2018-06-20T19:48:59.946Z,99.90
2018-06-20T19:51:28.571Z,99.90
2018-06-20T19:53:57.168Z,99.90
2018-06-20T19:56:25.760Z,99.90
2018-06-20T19:58:54.446Z,99.90
2018-06-20T20:01:23.174Z,99.90
2018-06-20T20:03:51.864Z,99.90
2018-06-20T20:06:20.502Z,99.90
2018-06-20T20:08:49.083Z,99.90
2018-06-20T20:11:17.679Z,99.90
2018-06-20T20:13:46.281Z,99.90
2018-06-20T20:16:14.905Z,99.90
2018-06-20T20:18:43.526Z,99.90
2018-06-20T20:21:12.176Z,99.90
2018-06-20T20:23:40.773Z,99.90
2018-06-20T20:26:09.492Z,99.90
2018-06-20T20:28:38.084Z,99.90
2018-06-20T20:31:07.109Z,99.90
2018-06-20T20:33:35.694Z,99.90
2018-06-20T20:36:04.381Z,99.90
2018-06-20T20:38:33.001Z,99.90
2018-06-20T20:41:01.699Z,99.90
2018-06-20T20:43:30.313Z,99.90
2018-06-20T20:45:58.973Z,99.90
2018-06-20T20:48:27.544Z,99.90
2018-06-20T20:50:57.781Z,99.90
2018-06-20T20:53:26.497Z,99.90
2018-06-20T20:55:55.097Z,99.90
2018-06-20T20:58:23.745Z,99.90
2018-06-20T21:00:52.662Z,99.90
2018-06-20T21:03:21.271Z,99.90
2018-06-20T21:05:49.965Z,99.90
2018-06-20T21:08:18.656Z,99.90
2018-06-20T21:10:47.321Z,99.90
2018-06-20T21:13:15.960Z,99.90
2018-06-20T21:15:45.267Z,99.90
2018-06-20T21:18:13.969Z,99.90
2018-06-20T21:20:42.660Z,99.90
2018-06-20T21:23:11.455Z,99.90
2018-06-20T21:25:40.113Z,99.90
2018-06-20T21:28:08.803Z,99.90
2018-06-20T21:30:37.421Z,99.90
2018-06-20T21:33:06.020Z,99.90
2018-06-20T21:35:34.629Z,99.90
2018-06-20T21:38:03.277Z,99.90
2018-06-20T21:40:31.850Z,99.90
2018-06-20T21:45:28.688Z,99.90
2018-06-20T21:50:50.089Z,99.90
2018-06-20T21:53:18.736Z,99.90
2018-06-20T21:55:47.317Z,99.90
2018-06-20T21:58:15.969Z,99.90
2018-06-20T22:00:46.207Z,99.90
2018-06-20T22:03:17.128Z,99.90
2018-06-20T22:05:45.696Z,99.90
2018-06-20T22:08:14.308Z,99.90
2018-06-20T22:10:42.956Z,99.90
2018-06-20T22:13:11.523Z,99.90
2018-06-20T22:15:40.227Z,99.90
2018-06-20T22:18:08.829Z,99.90
2018-06-20T22:20:37.357Z,99.90
2018-06-20T22:23:05.908Z,99.90
2018-06-20T22:25:34.482Z,99.90
2018-06-20T22:28:03.029Z,99.90
2018-06-20T22:30:31.604Z,99.90
2018-06-20T22:33:00.148Z,99.90
2018-06-20T22:35:28.740Z,99.90
2018-06-20T22:37:57.324Z,99.90
2018-06-20T22:40:25.897Z,99.90
2018-06-20T22:42:54.442Z,99.90
2018-06-20T22:45:23.005Z,99.90
2018-06-20T22:47:51.560Z,99.90
2018-06-20T22:50:20.141Z,99.90
2018-06-20T22:52:48.740Z,99.90
2018-06-20T22:55:17.320Z,99.90
2018-06-20T22:57:45.884Z,99.90
2018-06-20T23:00:14.523Z,99.90
2018-06-20T23:02:43.081Z,99.90
2018-06-20T23:05:11.777Z,99.90
2018-06-20T23:07:40.335Z,99.90
2018-06-20T23:10:08.918Z,99.90
2018-06-20T23:12:37.480Z,99.90
2018-06-20T23:15:06.606Z,99.90
2018-06-20T23:17:35.152Z,99.90
2018-06-20T23:20:03.799Z,99.90
2018-06-20T23:22:32.363Z,99.90
2018-06-20T23:25:00.964Z,99.90
2018-06-20T23:27:29.543Z,99.90
2018-06-20T23:29:58.101Z,99.90
2018-06-20T23:32:26.692Z,99.90
2018-06-20T23:34:55.300Z,99.90
2018-06-20T23:37:23.938Z,99.90
2018-06-20T23:39:52.532Z,99.90
2018-06-20T23:42:21.155Z,99.90
2018-06-20T23:44:49.711Z,99.90
2018-06-20T23:47:18.302Z,99.90
2018-06-20T23:49:46.869Z,99.90
2018-06-20T23:52:15.472Z,99.90
2018-06-20T23:54:44.044Z,99.90
2018-06-20T23:57:12.632Z,99.90
2018-06-20T23:59:41.229Z,99.90
